createdAt,value
2022-09-23T00:01:25.902Z,86.40
2022-09-23T00:03:53.517Z,80.45
2022-09-23T00:06:23.670Z,78.45
2022-09-23T00:08:52.424Z,88.20
2022-09-23T00:11:25.950Z,89.82
2022-09-23T00:13:56.522Z,93.50
2022-09-23T00:16:28.548Z,102.75
2022-09-23T00:18:56.635Z,99.90
2022-09-23T00:21:25.863Z,94.53
2022-09-23T00:23:54.054Z,96.40
2022-09-23T00:26:23.069Z,98.47
2022-09-23T00:28:51.234Z,89.97
2022-09-23T00:31:24.999Z,95.70
2022-09-23T00:34:00.866Z,94.50
2022-09-23T00:36:30.113Z,88.50
2022-09-23T00:38:58.736Z,87.82
2022-09-23T00:41:28.254Z,84.53
2022-09-23T00:44:00.753Z,88.63
2022-09-23T00:46:43.248Z,91.78
2022-09-23T00:49:15.913Z,88.53
2022-09-23T00:51:54.962Z,83.45
2022-09-23T00:54:24.906Z,73.57
2022-09-23T00:56:52.680Z,70.43
2022-09-23T00:59:21.885Z,73.55
2022-09-23T01:01:53.868Z,81.25
2022-09-23T01:04:24.677Z,76.10
2022-09-23T01:06:53.186Z,84.05
2022-09-23T01:09:22.929Z,72.47
2022-09-23T01:12:24.603Z,66.78
2022-09-23T01:15:10.711Z,60.95
2022-09-23T01:17:51.631Z,54.97
2022-09-23T01:20:37.552Z,58.03
2022-09-23T01:23:16.801Z,58.63
2022-09-23T01:26:14.182Z,59.38
2022-09-23T01:28:50.541Z,51.45
2022-09-23T01:31:53.506Z,53.15
2022-09-23T01:34:38.203Z,53.60
2022-09-23T01:37:20.888Z,54.13
2022-09-23T01:39:57.707Z,55.35
2022-09-23T01:42:46.278Z,50.33
2022-09-23T01:45:21.700Z,46.22
2022-09-23T01:48:10.451Z,49.28
2022-09-23T01:50:58.198Z,54.05
2022-09-23T01:53:36.801Z,75.65
2022-09-23T01:56:12.921Z,48.92
2022-09-23T01:58:50.734Z,51.65
2022-09-23T02:01:26.902Z,52.67
2022-09-23T02:04:12.970Z,53.58
2022-09-23T02:06:50.780Z,53.22
2022-09-23T02:09:25.140Z,55.13
2022-09-23T02:11:58.872Z,53.17
2022-09-23T02:14:33.493Z,52.05
2022-09-23T02:17:08.585Z,57.03
2022-09-23T02:20:01.776Z,63.75
2022-09-23T02:22:36.566Z,61.05
2022-09-23T02:25:04.451Z,70.03
2022-09-23T02:27:54.794Z,59.20
2022-09-23T02:30:27.292Z,68.63
2022-09-23T02:33:15.514Z,73.88
2022-09-23T02:35:59.513Z,71.00
2022-09-23T02:38:31.489Z,63.28
2022-09-23T02:41:10.079Z,60.03
2022-09-23T02:44:03.522Z,56.58
2022-09-23T02:46:31.339Z,53.47
2022-09-23T02:49:01.007Z,55.47
2022-09-23T02:51:30.214Z,56.13
2022-09-23T02:53:59.070Z,72.43
2022-09-23T02:58:55.318Z,58.33
2022-09-23T03:01:41.558Z,57.70
2022-09-23T03:04:27.073Z,55.63
2022-09-23T03:07:14.129Z,51.70
2022-09-23T03:10:01.626Z,54.85
2022-09-23T03:12:58.095Z,58.22
2022-09-23T03:15:52.255Z,69.38
2022-09-23T03:18:31.810Z,53.53
2022-09-23T03:21:06.968Z,55.55
2022-09-23T03:23:37.967Z,50.10
2022-09-23T03:26:17.812Z,51.50
2022-09-23T03:28:47.176Z,46.65
2022-09-23T03:31:16.660Z,56.88
2022-09-23T03:33:51.191Z,56.42
2022-09-23T03:36:43.910Z,62.55
2022-09-23T03:39:18.955Z,61.58
2022-09-23T03:41:51.031Z,60.90
2022-09-23T03:44:20.847Z,54.72
2022-09-23T03:46:51.037Z,59.58
2022-09-23T03:49:27.525Z,43.38
2022-09-23T03:51:56.441Z,37.63
2022-09-23T03:54:24.512Z,41.80
2022-09-23T03:56:52.340Z,45.13
2022-09-23T03:59:20.607Z,43.58
2022-09-23T04:01:48.254Z,43.85
2022-09-23T04:04:16.416Z,57.17
2022-09-23T04:06:44.058Z,42.00
2022-09-23T04:09:11.770Z,38.20
2022-09-23T04:11:39.627Z,48.28
2022-09-23T04:14:07.839Z,52.15
2022-09-23T04:16:35.495Z,56.15
2022-09-23T04:19:04.962Z,45.80
2022-09-23T04:21:33.049Z,45.08
2022-09-23T04:24:00.832Z,49.92
2022-09-23T04:26:28.606Z,50.72
2022-09-23T04:28:56.301Z,53.35
2022-09-23T04:31:24.112Z,60.33
2022-09-23T04:33:53.840Z,53.90
2022-09-23T04:36:21.933Z,51.33
2022-09-23T04:38:50.396Z,55.00
2022-09-23T04:41:19.031Z,47.72
2022-09-23T04:43:46.686Z,56.60
2022-09-23T04:46:16.192Z,48.20
2022-09-23T04:48:44.224Z,52.42
2022-09-23T04:51:18.051Z,45.60
2022-09-23T04:53:47.301Z,49.63
2022-09-23T04:56:29.140Z,59.67
2022-09-23T04:58:58.315Z,56.85
2022-09-23T05:01:31.130Z,52.80
2022-09-23T05:04:06.083Z,66.07
2022-09-23T05:06:35.777Z,80.75
2022-09-23T05:09:05.872Z,73.55
2022-09-23T05:11:34.356Z,80.70
2022-09-23T05:14:02.283Z,84.72
2022-09-23T05:16:30.250Z,91.47
2022-09-23T05:18:58.258Z,81.97
2022-09-23T05:21:29.223Z,136.30
2022-09-23T05:24:00.527Z,135.57
2022-09-23T05:26:30.939Z,112.13
2022-09-23T05:28:59.588Z,136.60
2022-09-23T05:31:29.185Z,113.57
2022-09-23T05:33:59.443Z,102.95
2022-09-23T05:36:28.459Z,76.65
2022-09-23T05:38:59.459Z,88.93
2022-09-23T05:41:27.700Z,77.03
2022-09-23T05:43:56.473Z,87.37
2022-09-23T05:46:30.539Z,61.78
2022-09-23T05:49:03.737Z,50.58
2022-09-23T05:51:32.918Z,48.47
2022-09-23T05:54:04.931Z,41.50
2022-09-23T05:56:34.985Z,37.10
2022-09-23T05:59:03.686Z,42.17
2022-09-23T06:01:34.423Z,37.03
2022-09-23T06:04:04.206Z,36.47
2022-09-23T06:06:40.069Z,41.13
2022-09-23T06:09:11.325Z,56.25
2022-09-23T06:11:39.170Z,43.47
2022-09-23T06:14:09.679Z,40.83
2022-09-23T06:16:37.656Z,35.28
2022-09-23T06:19:06.709Z,38.55
2022-09-23T06:21:37.228Z,41.05
2022-09-23T06:24:06.464Z,33.30
2022-09-23T06:26:35.448Z,38.30
2022-09-23T06:29:04.964Z,34.83
2022-09-23T06:31:33.519Z,34.90
2022-09-23T06:34:10.446Z,38.92
2022-09-23T06:36:44.448Z,35.20
2022-09-23T06:39:14.353Z,30.90
2022-09-23T06:41:42.412Z,110.55
2022-09-23T06:44:15.475Z,34.60
2022-09-23T06:46:43.895Z,262.48
2022-09-23T06:49:12.286Z,30.02
2022-09-23T06:51:40.505Z,32.30
2022-09-23T06:54:08.475Z,21.80
2022-09-23T06:56:39.181Z,25.87
2022-09-23T06:59:11.383Z,23.92
2022-09-23T07:01:39.770Z,23.25
2022-09-23T07:04:08.568Z,19.25
2022-09-23T07:06:37.364Z,24.77
2022-09-23T07:09:07.586Z,18.30
2022-09-23T07:11:38.195Z,19.17
2022-09-23T07:14:06.157Z,19.90
2022-09-23T07:16:36.840Z,20.88
2022-09-23T07:19:04.563Z,19.08
2022-09-23T07:21:32.229Z,23.90
2022-09-23T07:24:01.096Z,33.72
2022-09-23T07:26:31.017Z,26.15
2022-09-23T07:29:05.096Z,26.40
2022-09-23T07:31:39.821Z,28.23
2022-09-23T07:34:11.770Z,28.90
2022-09-23T07:36:41.187Z,31.63
2022-09-23T07:39:11.799Z,27.63
2022-09-23T07:41:41.872Z,38.97
2022-09-23T07:44:11.152Z,34.50
2022-09-23T07:46:39.090Z,27.40
2022-09-23T07:49:07.358Z,27.35
2022-09-23T07:51:38.629Z,22.92
2022-09-23T07:54:10.091Z,30.67
2022-09-23T07:56:38.473Z,21.83
2022-09-23T07:59:09.447Z,23.80
2022-09-23T08:01:44.029Z,24.10
2022-09-23T08:04:13.664Z,22.00
2022-09-23T08:06:43.563Z,23.60
2022-09-23T08:09:12.263Z,30.48
2022-09-23T08:11:42.134Z,21.58
2022-09-23T08:14:13.755Z,23.13
2022-09-23T08:16:44.844Z,80.55
2022-09-23T08:19:13.626Z,27.50
2022-09-23T08:21:41.904Z,28.50
2022-09-23T08:24:13.650Z,23.63
2022-09-23T08:26:41.289Z,21.48
2022-09-23T08:29:12.098Z,19.98
2022-09-23T08:31:39.967Z,18.00
2022-09-23T08:34:08.052Z,17.00
2022-09-23T08:36:36.435Z,12.90
2022-09-23T08:39:05.159Z,14.00
2022-09-23T08:41:49.008Z,17.23
2022-09-23T08:44:21.531Z,16.52
2022-09-23T08:47:01.915Z,20.23
2022-09-23T08:49:39.951Z,13.95
2022-09-23T08:52:19.424Z,11.97
2022-09-23T08:54:49.052Z,9.07
2022-09-23T08:57:38.807Z,10.98
2022-09-23T09:00:06.892Z,9.00
2022-09-23T09:02:37.020Z,14.20
2022-09-23T09:05:10.280Z,17.58
2022-09-23T09:07:40.577Z,9.32
2022-09-23T09:10:27.030Z,11.35
2022-09-23T09:13:04.308Z,12.25
2022-09-23T09:15:35.812Z,8.35
2022-09-23T09:18:14.120Z,10.68
2022-09-23T09:21:05.460Z,7.03
2022-09-23T09:23:54.429Z,8.63
2022-09-23T09:26:23.685Z,8.07
2022-09-23T09:32:22.692Z,4.47
2022-09-23T09:34:59.478Z,9.63
2022-09-23T09:37:59.232Z,8.13
2022-09-23T09:40:27.164Z,8.20
2022-09-23T09:42:57.246Z,6.45
2022-09-23T09:45:59.947Z,7.53
2022-09-23T09:48:39.825Z,9.90
2022-09-23T09:51:22.662Z,9.90
2022-09-23T09:53:53.792Z,7.03
2022-09-23T09:56:34.839Z,6.43
2022-09-23T09:59:11.509Z,7.22
2022-09-23T10:01:39.511Z,4.45
2022-09-23T10:04:34.449Z,5.32
2022-09-23T10:07:15.182Z,8.20
2022-09-23T10:09:50.782Z,7.72
2022-09-23T10:12:26.270Z,5.90
2022-09-23T10:14:57.635Z,8.02
2022-09-23T10:17:34.747Z,7.93
2022-09-23T10:20:17.797Z,5.28
2022-09-23T10:22:47.270Z,8.90
2022-09-23T10:25:27.114Z,4.47
2022-09-23T10:27:54.897Z,10.40
2022-09-23T10:30:27.765Z,9.70
2022-09-23T10:32:57.282Z,6.82
2022-09-23T10:35:26.747Z,8.90
2022-09-23T10:37:57.926Z,10.23
2022-09-23T10:40:59.478Z,13.40
2022-09-23T10:44:11.863Z,7.90
2022-09-23T10:47:12.123Z,8.70
2022-09-23T10:50:03.888Z,6.75
2022-09-23T10:52:46.758Z,3.58
2022-09-23T10:55:39.256Z,5.40
2022-09-23T10:58:40.671Z,10.70
2022-09-23T11:01:23.871Z,10.43
2022-09-23T11:04:16.622Z,9.38
2022-09-23T11:07:15.127Z,6.03
2022-09-23T11:09:51.826Z,3.35
2022-09-23T11:12:37.239Z,5.65
2022-09-23T11:15:23.845Z,5.53
2022-09-23T11:18:06.674Z,5.93
2022-09-23T11:20:37.460Z,6.63
2022-09-23T11:23:48.117Z,6.43
2022-09-23T11:26:21.603Z,3.78
2022-09-23T11:29:07.944Z,12.57
2022-09-23T11:32:01.232Z,4.95
2022-09-23T11:34:39.044Z,3.13
2022-09-23T11:37:18.703Z,11.30
2022-09-23T11:39:56.522Z,5.75
2022-09-23T11:42:40.540Z,7.25
2022-09-23T11:45:24.725Z,5.05
2022-09-23T11:47:59.143Z,8.38
2022-09-23T11:51:09.205Z,6.72
2022-09-23T11:53:51.952Z,4.90
2022-09-23T11:56:36.424Z,5.43
2022-09-23T11:59:10.193Z,4.03
2022-09-23T12:02:21.179Z,3.15
2022-09-23T12:04:58.781Z,5.43
2022-09-23T12:07:46.772Z,5.45
2022-09-23T12:10:15.931Z,4.25
2022-09-23T12:13:07.325Z,4.10
2022-09-23T12:15:53.170Z,2.92
2022-09-23T12:18:48.563Z,2.85
2022-09-23T12:21:33.060Z,2.15
2022-09-23T12:24:25.137Z,6.32
2022-09-23T12:26:57.629Z,3.60
2022-09-23T12:31:56.911Z,2.63
2022-09-23T12:34:38.201Z,4.65
2022-09-23T12:37:06.303Z,2.38
2022-09-23T12:39:38.715Z,5.57
2022-09-23T12:42:19.362Z,5.18
2022-09-23T12:44:48.898Z,10.57
2022-09-23T12:47:25.039Z,2.83
2022-09-23T12:49:57.340Z,1.27
2022-09-23T12:52:32.779Z,5.53
2022-09-23T12:55:23.520Z,6.28
2022-09-23T12:57:52.610Z,2.97
2022-09-23T13:00:20.870Z,7.80
2022-09-23T13:03:11.381Z,1.90
2022-09-23T13:06:12.059Z,4.18
2022-09-23T13:08:42.471Z,2.00
2022-09-23T13:11:31.313Z,3.05
2022-09-23T13:14:02.716Z,2.67
2022-09-23T13:16:39.809Z,4.22
2022-09-23T13:19:28.889Z,1.90
2022-09-23T13:22:13.012Z,4.38
2022-09-23T13:24:55.872Z,5.05
2022-09-23T13:27:34.436Z,5.47
2022-09-23T13:30:04.722Z,3.60
2022-09-23T13:32:37.614Z,5.13
2022-09-23T13:35:15.432Z,4.10
2022-09-23T13:37:46.144Z,7.43
2022-09-23T13:40:24.645Z,5.00
2022-09-23T13:43:02.580Z,5.10
2022-09-23T13:45:31.768Z,4.38
2022-09-23T13:48:05.509Z,5.35
2022-09-23T13:50:35.964Z,4.40
2022-09-23T13:53:10.549Z,2.63
2022-09-23T13:55:39.738Z,1.38
2022-09-23T13:58:24.009Z,6.03
2022-09-23T14:00:52.154Z,3.42
2022-09-23T14:03:36.596Z,6.47
2022-09-23T14:06:15.147Z,2.00
2022-09-23T14:08:47.666Z,2.97
2022-09-23T14:11:24.157Z,4.80
2022-09-23T14:13:55.191Z,4.60
2022-09-23T14:18:59.609Z,5.18
2022-09-23T14:21:39.857Z,5.55
2022-09-23T14:24:10.731Z,3.78
2022-09-23T14:26:40.948Z,5.18
2022-09-23T14:29:18.740Z,2.78
2022-09-23T14:31:57.182Z,4.30
2022-09-23T14:34:41.924Z,5.05
2022-09-23T14:37:54.008Z,4.03
2022-09-23T14:41:17.326Z,10.40
2022-09-23T14:44:01.957Z,7.13
2022-09-23T14:46:38.066Z,2.42
2022-09-23T14:49:11.818Z,3.25
2022-09-23T14:51:50.946Z,2.45
2022-09-23T14:54:45.234Z,1.52
2022-09-23T14:57:25.622Z,1.60
2022-09-23T14:59:59.221Z,6.38
2022-09-23T15:02:31.416Z,2.60
2022-09-23T15:05:15.026Z,2.10
2022-09-23T15:07:46.745Z,3.92
2022-09-23T15:10:25.818Z,1.92
2022-09-23T15:12:55.149Z,4.30
2022-09-23T15:15:30.934Z,2.80
2022-09-23T15:18:26.603Z,4.28
2022-09-23T15:21:14.970Z,2.92
2022-09-23T15:23:49.462Z,2.10
2022-09-23T15:26:45.126Z,2.40
2022-09-23T15:29:16.828Z,2.95
2022-09-23T15:31:44.720Z,2.15
2022-09-23T15:34:12.302Z,5.15
2022-09-23T15:36:40.035Z,3.10
2022-09-23T15:39:10.993Z,10.05
2022-09-23T15:41:38.778Z,4.10
2022-09-23T15:44:15.401Z,7.13
2022-09-23T15:46:48.614Z,2.88
2022-09-23T15:49:26.349Z,2.15
2022-09-23T15:51:54.229Z,2.53
2022-09-23T15:54:21.756Z,5.07
2022-09-23T15:56:49.451Z,4.45
2022-09-23T15:59:19.712Z,2.80
2022-09-23T16:01:47.942Z,3.17
2022-09-23T16:04:16.824Z,1.83
2022-09-23T16:06:48.982Z,5.65
2022-09-23T16:09:16.695Z,4.32
2022-09-23T16:11:47.335Z,2.97
2022-09-23T16:14:20.065Z,4.80
2022-09-23T16:16:48.149Z,4.78
2022-09-23T16:19:17.820Z,6.33
2022-09-23T16:21:45.764Z,4.18
2022-09-23T16:24:19.203Z,6.82
2022-09-23T16:26:48.125Z,3.42
2022-09-23T16:29:15.883Z,4.07
2022-09-23T16:31:43.863Z,8.65
2022-09-23T16:34:11.419Z,6.47
2022-09-23T16:36:44.106Z,1.98
2022-09-23T16:39:13.776Z,4.03
2022-09-23T16:41:42.982Z,4.13
2022-09-23T16:44:12.434Z,5.88
2022-09-23T16:46:42.964Z,7.18
2022-09-23T16:49:12.184Z,1.55
2022-09-23T16:51:40.381Z,4.47
2022-09-23T16:54:11.441Z,2.72
2022-09-23T16:56:45.363Z,3.80
2022-09-23T16:59:16.434Z,2.75
2022-09-23T17:02:02.711Z,5.85
2022-09-23T17:04:30.579Z,5.28
2022-09-23T17:06:59.990Z,2.40
2022-09-23T17:09:29.079Z,7.47
2022-09-23T17:12:22.323Z,6.88
2022-09-23T17:14:52.881Z,4.43
2022-09-23T17:17:20.653Z,3.00
2022-09-23T17:19:48.587Z,3.33
2022-09-23T17:22:16.269Z,4.45
2022-09-23T17:24:44.548Z,4.90
2022-09-23T17:27:17.283Z,6.07
2022-09-23T17:29:45.427Z,5.38
2022-09-23T17:32:12.930Z,2.20
2022-09-23T17:34:41.424Z,4.05
2022-09-23T17:37:09.315Z,4.82
2022-09-23T17:39:37.550Z,8.30
2022-09-23T17:42:05.566Z,3.90
2022-09-23T17:44:35.949Z,2.25
2022-09-23T17:47:05.698Z,3.92
2022-09-23T17:49:35.438Z,3.80
2022-09-23T17:52:06.054Z,4.40
2022-09-23T17:54:33.957Z,3.38
2022-09-23T17:57:02.367Z,5.38
2022-09-23T17:59:29.923Z,4.78
2022-09-23T18:01:57.586Z,7.88
2022-09-23T18:04:25.619Z,5.93
2022-09-23T18:06:53.243Z,6.88
2022-09-23T18:09:24.387Z,2.65
2022-09-23T18:11:52.171Z,7.07
2022-09-23T18:14:22.392Z,5.25
2022-09-23T18:16:52.683Z,3.22
2022-09-23T18:19:23.130Z,5.05
2022-09-23T18:21:53.918Z,4.85
2022-09-23T18:24:31.723Z,3.97
2022-09-23T18:27:00.419Z,4.80
2022-09-23T18:29:28.262Z,3.10
2022-09-23T18:31:56.173Z,4.90
2022-09-23T18:34:24.380Z,8.25
2022-09-23T18:36:52.018Z,6.90
2022-09-23T18:39:19.669Z,3.88
2022-09-23T18:41:48.221Z,9.50
2022-09-23T18:44:17.026Z,8.93
2022-09-23T18:46:45.075Z,8.50
2022-09-23T18:49:31.312Z,5.45
2022-09-23T18:51:59.156Z,4.63
2022-09-23T18:54:35.706Z,3.25
2022-09-23T18:57:03.345Z,6.63
2022-09-23T18:59:33.534Z,4.93
2022-09-23T19:02:01.602Z,3.00
2022-09-23T19:04:29.311Z,7.90
2022-09-23T19:06:58.012Z,8.30
2022-09-23T19:09:25.865Z,8.20
2022-09-23T19:11:54.025Z,10.57
2022-09-23T19:14:21.682Z,4.90
2022-09-23T19:16:49.983Z,13.55
2022-09-23T19:19:17.856Z,6.00
2022-09-23T19:21:45.834Z,4.28
2022-09-23T19:24:20.053Z,4.15
2022-09-23T19:26:48.717Z,8.15
2022-09-23T19:29:22.291Z,6.50
2022-09-23T19:31:50.257Z,5.93
2022-09-23T19:34:23.887Z,9.93
2022-09-23T19:36:53.185Z,5.55
2022-09-23T19:39:25.135Z,11.55
2022-09-23T19:41:57.836Z,8.45
2022-09-23T19:44:28.709Z,12.07
2022-09-23T19:46:57.367Z,5.80
2022-09-23T19:51:55.961Z,6.40
2022-09-23T19:54:27.424Z,6.47
2022-09-23T19:56:56.363Z,11.30
2022-09-23T19:59:26.703Z,12.68
2022-09-23T20:04:42.403Z,8.23
2022-09-23T20:09:37.859Z,11.52
2022-09-23T20:12:05.571Z,16.80
2022-09-23T20:14:33.284Z,11.50
2022-09-23T20:17:02.583Z,9.70
2022-09-23T20:19:30.225Z,14.65
2022-09-23T20:22:32.228Z,11.43
2022-09-23T20:25:02.354Z,7.72
2022-09-23T20:30:00.632Z,8.90
2022-09-23T20:32:28.453Z,12.77
2022-09-23T20:34:56.686Z,8.52
2022-09-23T20:37:52.905Z,8.73
2022-09-23T20:40:23.099Z,16.38
2022-09-23T20:42:51.011Z,6.88
2022-09-23T20:47:47.164Z,11.65
2022-09-23T20:50:14.874Z,6.75
2022-09-23T20:52:42.554Z,8.48
2022-09-23T20:55:10.382Z,11.50
2022-09-23T20:57:38.125Z,11.23
2022-09-23T21:00:07.972Z,13.85
2022-09-23T21:02:36.798Z,8.13
2022-09-23T21:05:04.968Z,10.57
2022-09-23T21:07:34.577Z,16.25
2022-09-23T21:16:45.617Z,23.77
2022-09-23T21:19:13.887Z,10.70
2022-09-23T21:21:50.557Z,17.40
2022-09-23T21:24:53.590Z,15.32
2022-09-23T21:27:13.688Z,15.13
2022-09-23T21:30:00.049Z,16.50
2022-09-23T21:32:39.687Z,13.82
2022-09-23T21:35:08.330Z,16.17
2022-09-23T21:37:36.917Z,17.20
2022-09-23T21:40:23.804Z,16.45
2022-09-23T21:42:52.737Z,15.98
2022-09-23T21:45:20.525Z,15.45
2022-09-23T21:47:51.708Z,18.50
2022-09-23T21:50:21.811Z,18.90
2022-09-23T21:52:53.116Z,16.80
2022-09-23T21:55:36.207Z,15.05
2022-09-23T21:58:21.806Z,20.52
2022-09-23T22:00:54.071Z,14.75
2022-09-23T22:04:12.068Z,18.10
2022-09-23T22:06:44.623Z,16.15
2022-09-23T22:09:24.091Z,13.63
2022-09-23T22:12:12.893Z,10.57
2022-09-23T22:14:43.502Z,9.73
2022-09-23T22:17:14.974Z,12.57
2022-09-23T22:19:47.135Z,21.92
2022-09-23T22:22:17.844Z,16.58
2022-09-23T22:24:47.478Z,20.15
2022-09-23T22:27:18.289Z,16.58
2022-09-23T22:30:04.442Z,18.67
2022-09-23T22:32:40.609Z,12.88
2022-09-23T22:35:10.958Z,16.25
2022-09-23T22:37:38.977Z,16.13
2022-09-23T22:40:10.657Z,15.02
2022-09-23T22:42:39.442Z,19.20
2022-09-23T22:45:08.297Z,15.55
2022-09-23T22:47:39.345Z,14.80
2022-09-23T22:50:09.371Z,19.83
2022-09-23T22:52:37.927Z,14.38
2022-09-23T22:55:08.232Z,15.07
2022-09-23T22:57:36.883Z,18.42
2022-09-23T23:00:07.908Z,12.85
2022-09-23T23:02:35.553Z,15.00
2022-09-23T23:05:03.430Z,14.35
2022-09-23T23:07:34.789Z,20.58
2022-09-23T23:10:03.321Z,13.23
2022-09-23T23:12:31.008Z,15.27
2022-09-23T23:14:58.674Z,15.63
2022-09-23T23:17:26.775Z,17.97
2022-09-23T23:19:54.652Z,18.98
2022-09-23T23:22:22.270Z,17.55
2022-09-23T23:24:50.884Z,15.63
2022-09-23T23:27:18.603Z,16.65
2022-09-23T23:29:46.686Z,18.63
2022-09-23T23:32:15.599Z,18.33
2022-09-23T23:37:14.417Z,19.65
2022-09-23T23:39:47.874Z,16.65
2022-09-23T23:42:15.747Z,14.70
2022-09-23T23:44:43.366Z,13.88
2022-09-23T23:47:11.094Z,14.00
2022-09-23T23:49:40.932Z,10.32
2022-09-23T23:52:08.679Z,15.48
2022-09-23T23:54:36.408Z,14.75
2022-09-23T23:57:04.177Z,13.30
2022-09-23T23:59:34.503Z,22.88
